createdAt,value
2022-12-26T00:00:56.793Z,13.00
2022-12-26T00:03:24.758Z,10.95
2022-12-26T00:05:53.933Z,14.70
2022-12-26T00:08:21.546Z,9.25
2022-12-26T00:10:49.146Z,9.60
2022-12-26T00:13:38.899Z,10.52
2022-12-26T00:16:07.487Z,10.50
2022-12-26T00:18:35.259Z,11.90
2022-12-26T00:21:04.476Z,13.13
2022-12-26T00:23:32.683Z,14.88
2022-12-26T00:26:03.421Z,14.43
2022-12-26T00:28:30.999Z,12.15
2022-12-26T00:30:58.541Z,17.17
2022-12-26T00:33:26.102Z,13.18
2022-12-26T00:35:53.666Z,15.77
2022-12-26T00:38:22.540Z,14.07
2022-12-26T00:40:50.057Z,22.75
2022-12-26T00:43:17.697Z,15.70
2022-12-26T00:45:45.631Z,20.15
2022-12-26T00:48:13.177Z,15.02
2022-12-26T00:50:40.786Z,18.25
2022-12-26T00:53:08.417Z,18.30
2022-12-26T00:55:37.315Z,19.92
2022-12-26T00:58:05.057Z,14.63
2022-12-26T01:00:33.453Z,17.33
2022-12-26T01:03:01.202Z,21.40
2022-12-26T01:05:29.652Z,21.58
2022-12-26T01:08:22.721Z,21.67
2022-12-26T01:10:48.562Z,21.15
2022-12-26T01:13:16.230Z,21.52
2022-12-26T01:15:48.705Z,17.65
2022-12-26T01:18:16.269Z,18.10
2022-12-26T01:20:43.852Z,25.05
2022-12-26T01:23:11.475Z,26.75
2022-12-26T01:26:15.790Z,23.95
2022-12-26T01:28:28.894Z,26.33
2022-12-26T01:30:56.448Z,25.92
2022-12-26T01:33:24.021Z,22.73
2022-12-26T01:35:53.366Z,25.55
2022-12-26T01:38:21.822Z,19.00
2022-12-26T01:41:10.470Z,22.85
2022-12-26T01:43:55.604Z,23.15
2022-12-26T01:46:28.425Z,28.38
2022-12-26T01:48:59.343Z,19.30
2022-12-26T01:51:30.690Z,22.92
2022-12-26T01:54:40.080Z,19.58
2022-12-26T01:56:49.164Z,16.08
2022-12-26T01:59:20.238Z,21.35
2022-12-26T02:01:49.691Z,21.23
2022-12-26T02:04:41.882Z,31.45
2022-12-26T02:07:10.239Z,23.85
2022-12-26T02:09:38.722Z,22.00
2022-12-26T02:12:34.684Z,29.80
2022-12-26T02:15:02.760Z,32.13
2022-12-26T02:17:31.629Z,23.48
2022-12-26T02:20:07.641Z,25.10
2022-12-26T02:23:21.445Z,26.08
2022-12-26T02:26:19.846Z,21.15
2022-12-26T02:29:07.762Z,24.38
2022-12-26T02:31:48.902Z,20.10
2022-12-26T02:34:21.031Z,16.95
2022-12-26T02:37:02.818Z,26.13
2022-12-26T02:39:47.682Z,17.42
2022-12-26T02:42:29.744Z,17.02
2022-12-26T02:45:24.001Z,17.27
2022-12-26T02:47:58.171Z,19.08
2022-12-26T02:50:50.218Z,18.55
2022-12-26T02:53:59.515Z,18.67
2022-12-26T02:56:50.097Z,21.88
2022-12-26T02:59:56.026Z,24.35
2022-12-26T03:02:49.123Z,22.10
2022-12-26T03:05:41.860Z,17.25
2022-12-26T03:08:32.290Z,19.27
2022-12-26T03:11:17.797Z,18.88
2022-12-26T03:13:47.753Z,34.55
2022-12-26T03:16:34.777Z,24.25
2022-12-26T03:19:05.959Z,24.30
2022-12-26T03:21:39.754Z,27.00
2022-12-26T03:24:10.370Z,16.45
2022-12-26T03:26:40.318Z,24.27
2022-12-26T03:29:27.504Z,18.73
2022-12-26T03:31:55.431Z,22.58
2022-12-26T03:34:22.544Z,20.08
2022-12-26T03:37:19.881Z,17.38
2022-12-26T03:40:12.135Z,20.67
2022-12-26T03:43:16.296Z,15.43
2022-12-26T03:46:07.370Z,18.13
2022-12-26T03:49:00.152Z,19.45
2022-12-26T03:51:56.885Z,19.95
2022-12-26T03:54:49.938Z,18.55
2022-12-26T03:57:39.977Z,21.13
2022-12-26T04:00:28.101Z,16.67
2022-12-26T04:03:17.592Z,15.68
2022-12-26T04:06:05.653Z,15.00
2022-12-26T04:09:03.921Z,15.75
2022-12-26T04:11:51.273Z,18.33
2022-12-26T04:14:47.401Z,17.25
2022-12-26T04:17:41.514Z,20.58
2022-12-26T04:20:25.645Z,23.40
2022-12-26T04:23:16.617Z,25.42
2022-12-26T04:26:07.855Z,22.52
2022-12-26T04:28:54.283Z,20.38
2022-12-26T04:31:45.670Z,20.35
2022-12-26T04:34:38.633Z,17.58
2022-12-26T04:37:27.775Z,16.02
2022-12-26T04:40:15.900Z,17.73
2022-12-26T04:43:48.894Z,22.48
2022-12-26T04:45:53.197Z,16.02
2022-12-26T04:48:38.372Z,18.23
2022-12-26T04:51:06.519Z,18.98
2022-12-26T04:53:34.099Z,17.35
2022-12-26T04:56:01.636Z,17.70
2022-12-26T04:58:30.159Z,15.57
2022-12-26T05:01:19.976Z,15.70
2022-12-26T05:04:05.576Z,15.50
2022-12-26T05:06:50.731Z,17.27
2022-12-26T05:09:36.043Z,14.32
2022-12-26T05:12:04.408Z,14.82
2022-12-26T05:14:32.209Z,16.35
2022-12-26T05:17:18.983Z,18.67
2022-12-26T05:20:19.226Z,17.80
2022-12-26T05:23:05.665Z,16.60
2022-12-26T05:25:53.939Z,15.57
2022-12-26T05:28:39.206Z,16.33
2022-12-26T05:31:07.724Z,18.35
2022-12-26T05:33:54.276Z,17.35
2022-12-26T05:36:25.660Z,16.85
2022-12-26T05:38:53.243Z,16.92
2022-12-26T05:41:20.783Z,16.95
2022-12-26T05:43:48.354Z,18.55
2022-12-26T05:46:15.935Z,20.00
2022-12-26T05:48:44.893Z,20.30
2022-12-26T05:51:12.519Z,18.17
2022-12-26T05:53:40.123Z,22.52
2022-12-26T05:56:11.120Z,22.55
2022-12-26T05:58:39.189Z,23.75
2022-12-26T06:01:08.802Z,21.95
2022-12-26T06:03:36.457Z,27.30
2022-12-26T06:06:06.482Z,26.92
2022-12-26T06:08:34.692Z,26.42
2022-12-26T06:11:05.801Z,27.02
2022-12-26T06:13:33.675Z,26.33
2022-12-26T06:16:05.465Z,21.92
2022-12-26T06:18:33.198Z,25.63
2022-12-26T06:21:00.844Z,28.63
2022-12-26T06:23:29.769Z,26.77
2022-12-26T06:25:58.311Z,26.92
2022-12-26T06:28:26.394Z,26.83
2022-12-26T06:30:53.989Z,26.65
2022-12-26T06:33:21.725Z,24.17
2022-12-26T06:35:49.338Z,18.13
2022-12-26T06:38:16.901Z,25.42
2022-12-26T06:40:45.721Z,25.58
2022-12-26T06:43:13.296Z,22.95
2022-12-26T06:45:40.846Z,19.08
2022-12-26T06:48:08.430Z,21.45
2022-12-26T06:50:37.201Z,20.88
2022-12-26T06:53:04.839Z,19.35
2022-12-26T06:55:32.419Z,19.17
2022-12-26T06:58:01.367Z,18.60
2022-12-26T07:00:30.263Z,18.65
2022-12-26T07:02:58.085Z,19.50
2022-12-26T07:05:25.693Z,20.15
2022-12-26T07:07:53.597Z,17.55
2022-12-26T07:10:21.797Z,16.02
2022-12-26T07:12:50.418Z,21.15
2022-12-26T07:15:19.518Z,18.90
2022-12-26T07:17:47.091Z,16.60
2022-12-26T07:20:14.710Z,21.55
2022-12-26T07:22:42.236Z,17.92
2022-12-26T07:25:10.392Z,16.67
2022-12-26T07:27:39.005Z,19.67
2022-12-26T07:30:07.854Z,18.23
2022-12-26T07:32:36.862Z,21.50
2022-12-26T07:35:05.030Z,21.17
2022-12-26T07:37:32.595Z,19.75
2022-12-26T07:40:00.201Z,18.65
2022-12-26T07:42:27.764Z,19.13
2022-12-26T07:44:55.339Z,21.25
2022-12-26T07:47:22.925Z,21.40
2022-12-26T07:49:51.914Z,20.13
2022-12-26T07:52:19.854Z,20.40
2022-12-26T07:54:47.446Z,20.90
2022-12-26T07:57:46.823Z,20.92
2022-12-26T08:00:02.874Z,21.10
2022-12-26T08:02:40.036Z,23.48
2022-12-26T08:05:09.508Z,23.80
2022-12-26T08:07:37.093Z,24.25
2022-12-26T08:10:05.040Z,23.67
2022-12-26T08:12:33.262Z,24.52
2022-12-26T08:15:00.940Z,26.17
2022-12-26T08:17:30.952Z,23.55
2022-12-26T08:19:59.640Z,24.05
2022-12-26T08:22:28.905Z,24.95
2022-12-26T08:24:56.511Z,26.70
2022-12-26T08:27:24.092Z,26.92
2022-12-26T08:29:51.713Z,23.42
2022-12-26T08:32:19.390Z,25.45
2022-12-26T08:34:47.362Z,27.10
2022-12-26T08:37:14.978Z,28.17
2022-12-26T08:39:43.956Z,25.75
2022-12-26T08:42:11.523Z,26.13
2022-12-26T08:44:39.222Z,26.52
2022-12-26T08:47:06.829Z,26.98
2022-12-26T08:49:34.487Z,24.55
2022-12-26T08:52:02.105Z,25.30
2022-12-26T08:54:29.787Z,24.02
2022-12-26T08:56:58.706Z,22.77
2022-12-26T08:59:26.469Z,26.48
2022-12-26T09:01:54.117Z,23.02
2022-12-26T09:04:21.765Z,23.05
2022-12-26T09:06:49.436Z,23.38
2022-12-26T09:09:16.994Z,24.88
2022-12-26T09:11:44.863Z,24.45
2022-12-26T09:14:13.870Z,20.92
2022-12-26T09:16:49.607Z,23.48
2022-12-26T09:19:18.600Z,25.08
2022-12-26T09:21:47.244Z,25.63
2022-12-26T09:24:16.807Z,28.50
2022-12-26T09:26:45.205Z,26.30
2022-12-26T09:29:14.800Z,27.15
2022-12-26T09:31:42.907Z,27.50
2022-12-26T09:34:10.641Z,32.92
2022-12-26T09:36:39.464Z,28.55
2022-12-26T09:39:07.742Z,21.65
2022-12-26T09:41:54.519Z,21.33
2022-12-26T09:44:29.045Z,25.38
2022-12-26T09:47:07.894Z,23.63
2022-12-26T09:49:39.325Z,21.88
2022-12-26T09:52:24.327Z,22.52
2022-12-26T09:54:55.131Z,22.52
2022-12-26T09:57:37.394Z,21.30
2022-12-26T10:00:08.646Z,31.65
2022-12-26T10:02:43.084Z,29.00
2022-12-26T10:05:14.395Z,27.30
2022-12-26T10:07:47.028Z,22.63
2022-12-26T10:10:19.167Z,21.02
2022-12-26T10:12:56.360Z,19.27
2022-12-26T10:15:37.129Z,17.45
2022-12-26T10:18:17.322Z,20.40
2022-12-26T10:20:55.423Z,17.25
2022-12-26T10:23:32.234Z,19.63
2022-12-26T10:26:06.835Z,19.90
2022-12-26T10:28:40.243Z,20.15
2022-12-26T10:31:14.528Z,18.65
2022-12-26T10:33:47.578Z,26.02
2022-12-26T10:36:22.291Z,18.42
2022-12-26T10:38:54.088Z,21.45
2022-12-26T10:41:28.011Z,27.10
2022-12-26T10:43:55.981Z,19.85
2022-12-26T10:46:52.382Z,23.27
2022-12-26T10:49:24.167Z,20.73
2022-12-26T10:51:53.454Z,18.42
2022-12-26T10:54:21.939Z,16.58
2022-12-26T10:56:52.607Z,17.05
2022-12-26T10:59:23.496Z,26.83
2022-12-26T11:01:52.965Z,20.08
2022-12-26T11:04:44.553Z,17.48
2022-12-26T11:07:13.017Z,20.38
2022-12-26T11:09:42.689Z,16.42
2022-12-26T11:12:21.526Z,17.52
2022-12-26T11:14:49.657Z,16.73
2022-12-26T11:17:28.751Z,16.60
2022-12-26T11:20:31.844Z,15.40
2022-12-26T11:23:31.635Z,15.13
2022-12-26T11:26:01.360Z,13.65
2022-12-26T11:28:32.052Z,14.68
2022-12-26T11:31:01.155Z,22.38
2022-12-26T11:33:33.705Z,22.00
2022-12-26T11:36:09.879Z,20.88
2022-12-26T11:38:47.012Z,14.48
2022-12-26T11:41:34.293Z,15.25
2022-12-26T11:44:12.629Z,18.77
2022-12-26T11:46:42.983Z,13.85
2022-12-26T11:49:19.448Z,13.80
2022-12-26T11:51:51.761Z,11.77
2022-12-26T11:54:27.260Z,11.80
2022-12-26T11:57:04.329Z,12.77
2022-12-26T11:59:32.097Z,14.70
2022-12-26T12:02:28.355Z,14.43
2022-12-26T12:05:02.001Z,11.35
2022-12-26T12:08:02.572Z,11.27
2022-12-26T12:10:55.248Z,15.18
2022-12-26T12:13:36.819Z,12.07
2022-12-26T12:16:14.850Z,13.07
2022-12-26T12:18:52.310Z,13.48
2022-12-26T12:21:32.462Z,13.43
2022-12-26T12:24:18.469Z,14.38
2022-12-26T12:26:58.749Z,13.02
2022-12-26T12:29:47.353Z,14.60
2022-12-26T12:32:18.986Z,11.82
2022-12-26T12:35:05.562Z,17.70
2022-12-26T12:37:47.126Z,19.73
2022-12-26T12:40:28.745Z,13.48
2022-12-26T12:43:05.291Z,12.88
2022-12-26T12:45:36.407Z,12.90
2022-12-26T12:48:21.965Z,14.20
2022-12-26T12:50:56.880Z,16.33
2022-12-26T12:53:38.399Z,12.98
2022-12-26T12:56:21.327Z,12.50
2022-12-26T12:58:55.393Z,11.93
2022-12-26T13:01:26.911Z,13.88
2022-12-26T13:03:59.833Z,16.83
2022-12-26T13:06:35.246Z,12.65
2022-12-26T13:09:11.066Z,12.75
2022-12-26T13:11:42.813Z,8.98
2022-12-26T13:14:16.788Z,9.68
2022-12-26T13:16:48.591Z,11.93
2022-12-26T13:19:20.993Z,9.68
2022-12-26T13:21:51.027Z,7.55
2022-12-26T13:24:25.724Z,5.70
2022-12-26T13:27:02.665Z,2.97
2022-12-26T13:29:36.730Z,6.50
2022-12-26T13:32:14.082Z,4.95
2022-12-26T13:34:44.012Z,2.15
2022-12-26T13:37:56.630Z,3.70
2022-12-26T13:40:28.704Z,2.58
2022-12-26T13:43:19.113Z,1.83
2022-12-26T13:45:53.720Z,2.78
2022-12-26T13:48:57.106Z,3.35
2022-12-26T13:51:47.952Z,2.30
2022-12-26T13:54:21.392Z,8.65
2022-12-26T13:57:25.641Z,5.93
2022-12-26T14:00:23.041Z,1.17
2022-12-26T14:03:23.672Z,2.55
2022-12-26T14:06:24.787Z,4.93
2022-12-26T14:09:13.246Z,4.00
2022-12-26T14:12:10.732Z,2.13
2022-12-26T14:14:54.192Z,6.97
2022-12-26T14:17:33.437Z,2.90
2022-12-26T14:20:07.769Z,8.25
2022-12-26T14:22:46.062Z,3.88
2022-12-26T14:25:22.837Z,5.28
2022-12-26T14:27:57.414Z,8.82
2022-12-26T14:30:31.624Z,7.53
2022-12-26T14:33:15.327Z,3.35
2022-12-26T14:36:01.998Z,4.45
2022-12-26T14:38:41.294Z,4.65
2022-12-26T14:41:32.657Z,4.95
2022-12-26T14:44:15.609Z,4.25
2022-12-26T14:46:59.460Z,7.57
2022-12-26T14:49:39.489Z,3.95
2022-12-26T14:52:41.145Z,4.68
2022-12-26T14:55:41.929Z,7.68
2022-12-26T14:58:39.866Z,11.50
2022-12-26T15:01:49.461Z,5.05
2022-12-26T15:04:49.062Z,2.92
2022-12-26T15:07:53.620Z,3.05
2022-12-26T15:10:50.479Z,2.65
2022-12-26T15:13:38.240Z,9.30
2022-12-26T15:16:16.590Z,9.73
2022-12-26T15:19:22.604Z,7.00
2022-12-26T15:22:42.286Z,7.25
2022-12-26T15:25:38.324Z,9.30
2022-12-26T15:28:45.553Z,6.47
2022-12-26T15:31:33.418Z,6.18
2022-12-26T15:34:14.717Z,9.05
2022-12-26T15:36:50.526Z,12.25
2022-12-26T15:39:27.305Z,4.28
2022-12-26T15:42:17.886Z,14.63
2022-12-26T15:44:56.243Z,10.32
2022-12-26T15:47:33.406Z,11.48
2022-12-26T15:50:18.501Z,4.63
2022-12-26T15:52:56.636Z,7.53
2022-12-26T15:55:38.118Z,8.75
2022-12-26T15:58:18.008Z,9.63
2022-12-26T16:00:50.600Z,8.90
2022-12-26T16:03:27.476Z,5.50
2022-12-26T16:06:01.631Z,10.75
2022-12-26T16:09:01.389Z,4.53
2022-12-26T16:11:32.000Z,6.63
2022-12-26T16:14:02.233Z,9.90
2022-12-26T16:16:32.710Z,7.38
2022-12-26T16:19:16.135Z,8.13
2022-12-26T16:22:05.361Z,5.38
2022-12-26T16:24:34.995Z,9.77
2022-12-26T16:27:04.682Z,7.93
2022-12-26T16:29:33.190Z,10.15
2022-12-26T16:32:06.130Z,8.48
2022-12-26T16:34:36.853Z,7.88
2022-12-26T16:37:06.280Z,5.75
2022-12-26T16:39:33.962Z,3.53
2022-12-26T16:42:04.956Z,3.78
2022-12-26T16:44:37.195Z,6.15
2022-12-26T16:47:07.541Z,8.98
2022-12-26T16:49:36.172Z,8.18
2022-12-26T16:52:04.529Z,8.13
2022-12-26T16:54:42.329Z,7.20
2022-12-26T16:57:15.906Z,9.30
2022-12-26T16:59:51.450Z,11.20
2022-12-26T17:02:23.664Z,8.38
2022-12-26T17:04:58.412Z,9.98
2022-12-26T17:07:26.895Z,9.65
2022-12-26T17:09:58.619Z,6.05
2022-12-26T17:12:29.715Z,12.05
2022-12-26T17:14:59.268Z,10.13
2022-12-26T17:17:30.472Z,8.38
2022-12-26T17:20:19.755Z,6.45
2022-12-26T17:22:49.517Z,8.13
2022-12-26T17:25:26.183Z,8.32
2022-12-26T17:28:24.026Z,9.35
2022-12-26T17:30:54.003Z,6.00
2022-12-26T17:33:23.530Z,7.38
2022-12-26T17:38:44.513Z,12.73
2022-12-26T17:41:16.256Z,7.75
2022-12-26T17:43:44.748Z,7.55
2022-12-26T17:46:15.359Z,11.65
2022-12-26T17:48:43.881Z,9.57
2022-12-26T17:51:16.347Z,11.23
2022-12-26T17:53:50.143Z,14.02
2022-12-26T17:56:21.002Z,17.50
2022-12-26T17:58:48.892Z,7.78
2022-12-26T18:01:20.981Z,8.88
2022-12-26T18:03:49.230Z,9.68
2022-12-26T18:06:17.857Z,12.60
2022-12-26T18:08:46.869Z,9.30
2022-12-26T18:11:15.406Z,11.00
2022-12-26T18:13:44.259Z,11.00
2022-12-26T18:16:17.253Z,10.85
2022-12-26T18:18:47.287Z,14.63
2022-12-26T18:21:16.601Z,8.25
2022-12-26T18:23:44.445Z,12.50
2022-12-26T18:26:21.219Z,10.35
2022-12-26T18:28:50.469Z,17.60
2022-12-26T18:31:18.318Z,17.33
2022-12-26T18:33:46.041Z,11.32
2022-12-26T18:36:14.440Z,19.83
2022-12-26T18:38:42.491Z,19.20
2022-12-26T18:41:14.272Z,22.08
2022-12-26T18:43:43.300Z,14.57
2022-12-26T18:46:17.147Z,16.95
2022-12-26T18:48:44.910Z,20.45
2022-12-26T18:51:12.826Z,18.17
2022-12-26T18:53:40.407Z,13.70
2022-12-26T18:56:12.445Z,12.07
2022-12-26T18:58:40.072Z,23.15
2022-12-26T19:01:09.379Z,18.48
2022-12-26T19:03:37.133Z,16.35
2022-12-26T19:06:05.213Z,14.82
2022-12-26T19:08:33.040Z,18.77
2022-12-26T19:11:00.732Z,9.57
2022-12-26T19:13:28.379Z,16.83
2022-12-26T19:15:56.139Z,13.20
2022-12-26T19:18:25.087Z,10.93
2022-12-26T19:20:52.831Z,14.75
2022-12-26T19:23:20.456Z,15.25
2022-12-26T19:25:48.033Z,13.23
2022-12-26T19:28:15.714Z,16.73
2022-12-26T19:30:43.368Z,11.82
2022-12-26T19:33:11.288Z,9.80
2022-12-26T19:35:40.274Z,12.25
2022-12-26T19:38:08.076Z,14.02
2022-12-26T19:40:35.997Z,13.27
2022-12-26T19:43:03.742Z,18.42
2022-12-26T19:45:31.316Z,13.88
2022-12-26T19:47:59.564Z,11.35
2022-12-26T19:50:27.263Z,11.98
2022-12-26T19:52:56.245Z,10.75
2022-12-26T19:55:24.006Z,12.90
2022-12-26T19:57:51.640Z,15.68
2022-12-26T20:00:20.955Z,10.15
2022-12-26T20:02:48.816Z,10.55
2022-12-26T20:05:16.767Z,8.57
2022-12-26T20:07:44.576Z,11.15
2022-12-26T20:10:13.561Z,9.90
2022-12-26T20:12:41.209Z,12.07
2022-12-26T20:15:09.421Z,9.07
2022-12-26T20:17:37.172Z,11.93
2022-12-26T20:20:05.581Z,12.85
2022-12-26T20:22:33.368Z,10.15
2022-12-26T20:25:01.418Z,14.75
2022-12-26T20:27:30.553Z,12.05
2022-12-26T20:29:58.267Z,12.00
2022-12-26T20:32:25.910Z,13.38
2022-12-26T20:34:53.551Z,9.60
2022-12-26T20:37:21.165Z,14.60
2022-12-26T20:39:48.978Z,9.30
2022-12-26T20:42:17.202Z,12.88
2022-12-26T20:44:46.444Z,12.70
2022-12-26T20:47:14.193Z,11.10
2022-12-26T20:49:41.830Z,9.52
2022-12-26T20:52:09.481Z,12.45
2022-12-26T20:54:37.209Z,9.32
2022-12-26T20:57:04.839Z,12.07
2022-12-26T20:59:32.406Z,10.70
2022-12-26T21:02:01.615Z,18.83
2022-12-26T21:04:29.414Z,8.07
2022-12-26T21:06:57.110Z,10.90
2022-12-26T21:09:24.824Z,11.48
2022-12-26T21:11:52.458Z,14.25
2022-12-26T21:14:22.685Z,8.40
2022-12-26T21:16:52.352Z,7.78
2022-12-26T21:19:22.729Z,14.20
2022-12-26T21:21:55.083Z,9.38
2022-12-26T21:24:25.379Z,11.68
2022-12-26T21:26:53.845Z,8.55
2022-12-26T21:29:24.010Z,12.10
2022-12-26T21:31:52.596Z,8.75
2022-12-26T21:34:23.291Z,10.68
2022-12-26T21:37:04.985Z,13.70
2022-12-26T21:39:33.995Z,7.63
2022-12-26T21:42:02.547Z,12.25
2022-12-26T21:44:30.275Z,8.40
2022-12-26T21:46:57.916Z,7.47
2022-12-26T21:49:26.860Z,7.20
2022-12-26T21:51:54.989Z,8.70
2022-12-26T21:54:46.622Z,13.35
2022-12-26T21:57:16.465Z,9.57
2022-12-26T21:59:59.904Z,12.68
2022-12-26T22:02:47.245Z,5.22
2022-12-26T22:05:17.588Z,6.78
2022-12-26T22:07:45.487Z,9.25
2022-12-26T22:10:34.417Z,10.60
2022-12-26T22:13:02.788Z,11.10
2022-12-26T22:15:48.481Z,7.70
2022-12-26T22:18:16.258Z,6.80
2022-12-26T22:20:46.073Z,8.40
2022-12-26T22:23:14.346Z,6.47
2022-12-26T22:25:42.014Z,7.55
2022-12-26T22:28:09.643Z,6.60
2022-12-26T22:30:37.222Z,5.85
2022-12-26T22:33:04.889Z,8.27
2022-12-26T22:35:33.801Z,6.40
2022-12-26T22:38:02.827Z,5.07
2022-12-26T22:40:30.387Z,6.47
2022-12-26T22:42:58.074Z,8.20
2022-12-26T22:45:25.717Z,6.70
2022-12-26T22:47:53.305Z,8.98
2022-12-26T22:50:21.144Z,5.68
2022-12-26T22:52:48.772Z,13.05
2022-12-26T22:55:17.723Z,7.55
2022-12-26T22:57:51.075Z,8.48
2022-12-26T23:00:20.356Z,7.68
2022-12-26T23:02:48.080Z,11.07
2022-12-26T23:05:16.574Z,5.35
2022-12-26T23:07:44.817Z,5.90
2022-12-26T23:10:18.900Z,6.80
2022-12-26T23:12:46.923Z,5.35
2022-12-26T23:15:17.608Z,8.05
2022-12-26T23:18:08.225Z,10.82
2022-12-26T23:20:55.966Z,7.35
2022-12-26T23:23:24.222Z,8.13
2022-12-26T23:25:53.203Z,7.93
2022-12-26T23:28:38.674Z,5.65
2022-12-26T23:31:06.408Z,4.88
2022-12-26T23:33:34.267Z,9.85
2022-12-26T23:36:01.903Z,3.97
2022-12-26T23:38:29.555Z,6.07
2022-12-26T23:41:00.579Z,7.70
2022-12-26T23:43:28.470Z,8.77
2022-12-26T23:45:56.029Z,5.80
2022-12-26T23:48:23.640Z,6.55
2022-12-26T23:50:51.206Z,7.30
2022-12-26T23:53:18.778Z,6.50
2022-12-26T23:55:46.395Z,10.38
2022-12-26T23:58:15.334Z,12.13
